MAS377 WIII-WMKK
Flight info
| Callsign | MAS377 |
|---|---|
| Flight time | N/A |
| Altitude | 40000 |
| Route | DOLTA2C/25L DOLTA A585 PKU/N0466F390 N633 SALAX SALAX1JXSULDIXILS/33 |
| Aircraft | A339/H-SADE1E2E3GHIJ3J5M1P2RWXY/LB2D1 |
Departure
| Time | N/A |
|---|---|
| Airport | Soekarno-Hatta International Airport (WIII) |
Arrival
| Time | 2026-05-04 14:54 |
|---|---|
| Airport | Kuala Lumpur International Airport (WMKK) |
| Time | Latitude | Longitude | Altitude | Speed | Heading |
|---|---|---|---|---|---|
| 2026-05-04 14:49 | 2.57464 | 101.78748 | 2507 ft | 194 kts | 329° |
| 2026-05-04 14:49 | 2.58048 | 101.78408 | 2503 ft | 195 kts | 328° |
| 2026-05-04 14:50 | 2.58621 | 101.78045 | 2518 ft | 195 kts | 325° |
| 2026-05-04 14:50 | 2.59176 | 101.77651 | 2517 ft | 195 kts | 323° |
| 2026-05-04 14:50 | 2.59719 | 101.77245 | 2514 ft | 195 kts | 323° |
| 2026-05-04 14:50 | 2.60270 | 101.76847 | 2513 ft | 195 kts | 325° |
| 2026-05-04 14:51 | 2.60836 | 101.76466 | 2451 ft | 197 kts | 326° |
| 2026-05-04 14:51 | 2.61401 | 101.76097 | 2386 ft | 190 kts | 326° |
| 2026-05-04 14:51 | 2.61934 | 101.75752 | 2305 ft | 180 kts | 327° |
| 2026-05-04 14:51 | 2.62957 | 101.75089 | 1993 ft | 176 kts | 326° |
| 2026-05-04 14:52 | 2.63975 | 101.74414 | 1581 ft | 175 kts | 326° |
| 2026-05-04 14:52 | 2.64969 | 101.73746 | 1245 ft | 166 kts | 327° |
| 2026-05-04 14:52 | 2.65908 | 101.73117 | 1016 ft | 162 kts | 327° |
| 2026-05-04 14:52 | 2.66827 | 101.72491 | 935 ft | 156 kts | 326° |
| 2026-05-04 14:53 | 2.67732 | 101.71860 | 837 ft | 160 kts | 325° |
| 2026-05-04 14:53 | 2.68647 | 101.71227 | 668 ft | 161 kts | 326° |
| 2026-05-04 14:53 | 2.69582 | 101.70600 | 439 ft | 163 kts | 326° |
| 2026-05-04 14:53 | 2.70519 | 101.69980 | 208 ft | 157 kts | 326° |
| 2026-05-04 14:54 | 2.71415 | 101.69369 | 42 ft | 142 kts | 325° |
| 2026-05-04 14:54 | 2.71926 | 101.69022 | 42 ft | 38 kts | 326° |
| 2026-05-04 14:54 | 2.72073 | 101.68923 | 41 ft | 30 kts | 326° |
| 2026-05-04 14:54 | 2.72292 | 101.68774 | 40 ft | 45 kts | 326° |
| 2026-05-04 14:55 | 2.72560 | 101.68616 | 41 ft | 41 kts | 345° |
| 2026-05-04 14:55 | 2.72706 | 101.68616 | 41 ft | 8 kts | 353° |
| 2026-05-04 14:55 | 2.72707 | 101.68616 | 41 ft | 0 kts | 353° |
| 2026-05-04 14:57 | 2.72708 | 101.68616 | 41 ft | 2 kts | 353° |
| 2026-05-04 14:57 | 2.72761 | 101.68610 | 41 ft | 12 kts | 353° |
| 2026-05-04 14:57 | 2.72868 | 101.68590 | 41 ft | 19 kts | 341° |
| 2026-05-04 14:58 | 2.72994 | 101.68515 | 41 ft | 22 kts | 326° |
| 2026-05-04 14:58 | 2.73124 | 101.68426 | 41 ft | 24 kts | 325° |
| 2026-05-04 14:58 | 2.73264 | 101.68331 | 41 ft | 24 kts | 326° |
| 2026-05-04 14:58 | 2.73359 | 101.68311 | 41 ft | 19 kts | 28° |
| 2026-05-04 14:59 | 2.73456 | 101.68437 | 43 ft | 16 kts | 55° |
| 2026-05-04 14:59 | 2.73530 | 101.68468 | 44 ft | 10 kts | 338° |
| 2026-05-04 14:59 | 2.73576 | 101.68441 | 44 ft | 0 kts | 328° |